createdAt,value
2022-12-06T00:00:12.146Z,5.52
2022-12-06T00:05:08.879Z,5.25
2022-12-06T00:10:08.890Z,5.14
2022-12-06T00:15:08.868Z,5.12
2022-12-06T00:20:08.729Z,5.38
2022-12-06T00:25:08.640Z,5.17
2022-12-06T00:30:08.884Z,5.16
2022-12-06T00:35:08.468Z,5.16
2022-12-06T00:40:08.536Z,5.14
2022-12-06T00:45:08.528Z,4.99
2022-12-06T00:50:08.457Z,5.17
2022-12-06T00:55:08.276Z,4.95
2022-12-06T01:05:53.514Z,4.83
2022-12-06T01:10:53.223Z,5.46
2022-12-06T01:15:53.244Z,5.66
2022-12-06T01:20:52.979Z,5.38
2022-12-06T01:41:10.810Z,5.59
2022-12-06T01:46:10.748Z,5.60
2022-12-06T01:51:10.496Z,5.53
2022-12-06T01:56:10.439Z,5.25
2022-12-06T02:01:10.413Z,5.19
2022-12-06T02:06:10.270Z,4.91
2022-12-06T02:11:10.355Z,4.73
2022-12-06T02:16:10.346Z,5.40
2022-12-06T02:21:10.161Z,5.64
2022-12-06T02:26:10.169Z,5.75
2022-12-06T02:31:13.232Z,5.30
2022-12-06T02:36:10.053Z,5.04
2022-12-06T02:41:09.900Z,5.43
2022-12-06T02:46:10.026Z,5.22
2022-12-06T02:58:51.701Z,5.41
2022-12-06T03:03:51.335Z,5.13
2022-12-06T03:08:51.510Z,5.34
2022-12-06T03:26:47.319Z,5.59
2022-12-06T03:31:47.295Z,5.23
2022-12-06T03:36:47.221Z,5.17
2022-12-06T03:41:47.239Z,5.53
2022-12-06T03:46:47.146Z,5.16
2022-12-06T03:56:57.044Z,5.43
2022-12-06T04:01:56.672Z,5.59
2022-12-06T04:06:56.807Z,5.78
2022-12-06T04:11:56.503Z,5.77
2022-12-06T04:16:56.571Z,5.52
2022-12-06T04:21:56.472Z,5.70
2022-12-06T04:26:56.676Z,5.38
2022-12-06T04:31:56.344Z,5.82
2022-12-06T04:36:56.213Z,5.86
2022-12-06T04:41:56.162Z,5.86
2022-12-06T04:46:59.197Z,5.67
2022-12-06T04:51:56.156Z,5.19
2022-12-06T05:13:17.940Z,5.37
2022-12-06T05:18:17.585Z,5.75
2022-12-06T05:23:17.680Z,5.17
2022-12-06T07:03:53.021Z,5.74
2022-12-06T07:14:49.015Z,5.30
2022-12-06T07:52:03.856Z,5.60
2022-12-06T07:57:03.757Z,5.91
2022-12-06T08:06:13.713Z,6.01
2022-12-06T08:24:12.719Z,5.63
2022-12-06T08:29:20.547Z,6.26
2022-12-06T08:44:23.425Z,6.06
2022-12-06T08:49:23.237Z,6.04
2022-12-06T09:49:14.753Z,6.38
2022-12-06T09:54:13.895Z,6.35
2022-12-06T09:59:15.186Z,6.25
2022-12-06T10:04:14.080Z,6.54
2022-12-06T10:09:13.843Z,5.91
2022-12-06T10:14:13.945Z,6.44
2022-12-06T11:23:24.567Z,5.88
2022-12-06T11:28:24.173Z,5.70
2022-12-06T11:33:24.298Z,6.19
2022-12-06T11:38:24.105Z,6.10
2022-12-06T11:47:32.421Z,6.21
2022-12-06T11:52:32.016Z,6.46
2022-12-06T11:57:33.551Z,6.33
2022-12-06T12:08:00.838Z,6.44
2022-12-06T12:16:07.433Z,6.07
2022-12-06T12:21:06.896Z,6.59
2022-12-06T12:30:09.051Z,5.98
2022-12-06T12:35:08.750Z,6.11
2022-12-06T12:40:10.808Z,6.56
2022-12-06T12:45:08.480Z,6.33
2022-12-06T12:50:08.530Z,6.41
2022-12-06T14:12:35.476Z,5.82
2022-12-06T14:18:00.832Z,6.00
2022-12-06T14:47:08.211Z,5.34
2022-12-06T14:52:08.021Z,5.41
2022-12-06T15:04:56.359Z,5.59
2022-12-06T15:33:17.330Z,5.98
2022-12-06T15:38:17.294Z,5.95
2022-12-06T16:50:27.763Z,5.71
2022-12-06T17:21:20.486Z,5.53
2022-12-06T17:26:19.765Z,5.74
2022-12-06T17:31:19.576Z,6.07
2022-12-06T19:45:36.836Z,5.66
2022-12-06T19:50:34.733Z,6.10
2022-12-06T22:29:43.765Z,5.89
2022-12-06T22:34:44.035Z,5.67
2022-12-06T22:39:43.583Z,5.81
2022-12-06T22:44:43.609Z,5.64
2022-12-06T22:49:43.552Z,5.28
2022-12-06T22:54:43.451Z,5.68
2022-12-06T22:59:43.396Z,5.46
2022-12-06T23:04:43.247Z,5.20
2022-12-06T23:09:43.358Z,5.05
2022-12-06T23:14:43.107Z,5.19
2022-12-06T23:19:46.194Z,5.25
2022-12-06T23:24:43.100Z,4.92
2022-12-06T23:29:42.960Z,5.01
2022-12-06T23:34:42.867Z,4.79
2022-12-06T23:39:43.448Z,4.96
2022-12-06T23:44:42.711Z,4.46
2022-12-06T23:49:42.890Z,4.34
2022-12-06T23:54:42.648Z,4.15
2022-12-06T23:59:42.451Z,4.24
